Time;durP1;ratioP1;P1;durP2;ratioP2;P2;SDS_P1;SDS_P2;PMS_P1;PMS_P2;Temp;Humidity;BMP_temperature;BMP_pressure;BME280_temperature;BME280_humidity;BME280_pressure;Samples;Min_cycle;Max_cycle;Signal;HPM_P1;HPM_P2
2022/01/07 00:05:40;;;;;;;3.17;1.80;;;;;;;4.50;83.20;98695.56;5114588;28;20118;-94
2022/01/07 00:08:07;;;;;;;3.28;1.63;;;;;;;4.59;83.94;98719.22;5118610;28;20103;-93
2022/01/07 00:10:33;;;;;;;5.05;1.80;;;;;;;4.71;83.57;98736.75;5113574;28;20127;-96
2022/01/07 00:13:00;;;;;;;5.65;1.90;;;;;;;4.52;84.25;98715.72;5105205;28;20055;-93
2022/01/07 00:15:27;;;;;;;4.30;2.00;;;;;;;4.53;84.79;98730.66;5098130;28;20040;-95
2022/01/07 00:17:53;;;;;;;4.10;2.00;;;;;;;4.64;84.60;98748.16;5102351;28;20048;-93
2022/01/07 00:20:19;;;;;;;4.03;2.00;;;;;;;4.54;84.77;98736.81;5115369;28;20357;-93
2022/01/07 00:22:48;;;;;;;5.70;2.50;;;;;;;4.56;84.26;98731.53;5113837;28;20118;-93
2022/01/07 00:25:16;;;;;;;4.22;2.38;;;;;;;4.56;84.11;98726.28;5116618;28;20043;-93
2022/01/07 00:27:42;;;;;;;4.03;2.17;;;;;;;4.73;83.61;98741.13;5105414;28;20040;-91
2022/01/07 00:34:47;;;;;;;2.53;1.70;;;;;;;4.80;83.59;98760.41;5109016;28;20061;-93
2022/01/07 00:37:14;;;;;;;4.20;2.08;;;;;;;4.76;83.79;98756.03;5101547;28;20089;-93
2022/01/07 00:39:40;;;;;;;3.75;2.03;;;;;;;4.68;84.01;98739.38;5115029;28;20051;-93
2022/01/07 00:42:06;;;;;;;5.45;1.88;;;;;;;4.66;83.72;98744.66;5101845;28;20048;-93
2022/01/07 00:44:32;;;;;;;3.70;2.00;;;;;;;4.72;83.57;98749.03;5107189;28;20061;-95
2022/01/07 00:50:22;;;;;;;5.22;2.00;;;;;;;4.70;83.03;98734.97;5108612;28;20073;-92
2022/01/07 00:52:50;;;;;;;6.60;2.00;;;;;;;4.67;83.33;98727.97;5103868;28;20069;-90
2022/01/07 00:55:17;;;;;;;2.83;2.00;;;;;;;4.69;83.87;98752.53;5110994;28;20122;-92
2022/01/07 00:57:43;;;;;;;4.28;1.92;;;;;;;4.63;83.82;98755.19;5117185;28;20044;-92
2022/01/07 01:06:55;;;;;;;4.10;1.95;;;;;;;4.76;82.79;98753.41;5105413;28;20036;-93
2022/01/07 01:09:22;;;;;;;6.18;2.00;;;;;;;4.80;82.93;98751.63;5109099;28;20055;-94
2022/01/07 01:11:48;;;;;;;6.25;2.10;;;;;;;4.85;83.03;98760.38;5108532;28;20096;-92
2022/01/07 01:14:14;;;;;;;4.00;2.20;;;;;;;4.78;82.91;98751.63;5104594;28;20031;-93
2022/01/07 01:16:40;;;;;;;5.43;2.10;;;;;;;4.64;82.82;98743.78;5113612;28;20046;-92
2022/01/07 01:19:11;;;;;;;4.57;2.10;;;;;;;4.82;82.04;98744.59;5110213;28;20042;-92
2022/01/07 01:21:37;;;;;;;4.63;2.08;;;;;;;4.98;81.38;98761.22;5114596;28;20036;-93
2022/01/07 01:24:03;;;;;;;3.55;1.65;;;;;;;4.91;81.39;98752.47;5098152;28;20051;-94
2022/01/07 01:26:32;;;;;;;3.50;2.00;;;;;;;4.90;81.76;98751.59;5099537;28;20043;-94
2022/01/07 01:28:58;;;;;;;4.90;1.70;;;;;;;5.04;80.62;98766.47;5117714;28;20039;-94
2022/01/07 01:38:16;;;;;;;6.47;1.80;;;;;;;5.04;80.66;98772.59;5110733;28;20035;-94
2022/01/07 01:40:43;;;;;;;4.47;1.73;;;;;;;5.07;80.36;98769.94;5102231;28;20039;-92
2022/01/07 01:43:12;;;;;;;2.47;1.88;;;;;;;5.01;79.97;98748.00;5113069;28;20039;-95
2022/01/07 01:49:32;;;;;;;2.33;1.60;;;;;;;5.28;79.45;98770.72;5117217;28;20369;-94
2022/01/07 01:51:57;;;;;;;7.30;1.92;;;;;;;5.17;79.58;98765.50;5096487;28;20097;-94
2022/01/07 01:54:23;;;;;;;3.00;1.90;;;;;;;5.23;79.76;98761.97;5113793;28;20044;-95
2022/01/07 01:56:49;;;;;;;5.43;1.90;;;;;;;5.17;79.14;98752.31;5116398;28;20102;-92
2022/01/07 01:59:23;;;;;;;5.38;2.10;;;;;;;5.05;79.33;98741.84;5117356;28;20155;-94
2022/01/07 02:05:12;;;;;;;5.22;3.08;;;;;;;5.11;79.17;98753.22;5109222;28;20031;-90
2022/01/07 02:07:40;;;;;;;8.18;3.55;;;;;;;5.16;79.45;98763.72;5109774;28;20048;-93
2022/01/07 02:10:08;;;;;;;5.40;2.53;;;;;;;5.04;79.51;98748.88;5111672;28;20825;-94
2022/01/07 02:12:36;;;;;;;6.63;2.60;;;;;;;4.93;79.77;98743.66;5099358;28;20048;-94
2022/01/07 02:15:04;;;;;;;3.28;1.70;;;;;;;4.89;79.52;98734.00;5095473;28;20281;-94
2022/01/07 02:17:30;;;;;;;2.47;1.70;;;;;;;5.00;79.33;98746.28;5102209;28;20063;-94
2022/01/07 02:19:57;;;;;;;3.53;1.77;;;;;;;5.18;78.25;98766.38;5109653;28;20508;-93
2022/01/07 02:22:24;;;;;;;4.78;2.33;;;;;;;5.21;77.87;98755.81;5098558;28;20048;-94
2022/01/07 02:24:50;;;;;;;3.85;2.00;;;;;;;5.07;78.40;98742.69;5096135;28;20127;-93
2022/01/07 02:27:17;;;;;;;4.75;1.83;;;;;;;5.12;78.45;98747.06;5116112;28;20071;-94
2022/01/07 02:29:47;;;;;;;3.25;1.83;;;;;;;5.01;77.88;98735.72;5114031;28;20500;-93
2022/01/07 02:35:19;;;;;;;6.00;2.35;;;;;;;5.20;78.19;98760.19;5113371;28;19912;-91
2022/01/07 02:37:45;;;;;;;;;;;;;;;5.31;77.10;98776.84;5108090;28;20485;-91
2022/01/07 02:40:11;;;;;;;7.00;2.00;;;;;;;5.29;76.82;98764.53;5115857;28;20311;-93
2022/01/07 02:42:37;;;;;;;5.03;1.85;;;;;;;5.26;76.68;98754.03;5116294;28;20044;-92
2022/01/07 02:48:25;;;;;;;4.22;1.95;;;;;;;5.31;76.41;98765.41;5102980;28;20036;-94
2022/01/07 02:50:54;;;;;;;3.30;1.90;;;;;;;5.34;76.77;98768.91;5120736;28;20046;-93
2022/01/07 02:53:20;;;;;;;6.57;2.30;;;;;;;5.29;76.66;98770.72;5120687;28;20047;-94
2022/01/07 02:55:47;;;;;;;4.60;2.20;;;;;;;5.10;77.24;98740.94;5120416;28;20044;-92
2022/01/07 02:58:13;;;;;;;4.05;1.92;;;;;;;5.21;77.67;98761.97;5114543;28;20401;-93
2022/01/07 03:04:34;;;;;;;4.95;2.17;;;;;;;5.29;77.88;98780.38;5111765;28;20420;-92
2022/01/07 03:07:01;;;;;;;2.00;1.70;;;;;;;5.17;78.00;98756.72;5106028;28;20090;-93
2022/01/07 03:09:28;;;;;;;7.30;2.35;;;;;;;5.14;78.08;98757.63;5108967;28;20093;-94
2022/01/07 03:11:54;;;;;;;4.18;1.85;;;;;;;5.29;78.26;98789.16;5105775;28;20050;-94
2022/01/07 03:14:20;;;;;;;4.18;1.85;;;;;;;5.23;78.60;98776.03;5112525;28;20059;-94
2022/01/07 03:20:13;;;;;;;4.47;1.70;;;;;;;5.05;78.40;98745.38;5101231;28;20092;-94
2022/01/07 03:22:42;;;;;;;5.40;2.15;;;;;;;5.03;78.79;98747.13;5106387;28;20856;-95
2022/01/07 03:25:10;;;;;;;6.53;2.42;;;;;;;5.01;79.43;98758.53;5118607;28;20047;-93
2022/01/07 03:27:35;;;;;;;6.30;2.20;;;;;;;4.96;80.28;98755.94;5119189;28;20051;-93
2022/01/07 03:36:46;;;;;;;6.07;2.00;;;;;;;4.79;80.55;98745.47;5115111;28;20039;-94
2022/01/07 03:39:13;;;;;;;3.75;2.17;;;;;;;4.88;81.09;98776.16;5101802;28;20036;-92
2022/01/07 03:41:40;;;;;;;5.05;2.25;;;;;;;4.80;81.31;98765.69;5107950;28;20462;-93
2022/01/07 03:44:06;;;;;;;4.82;2.55;;;;;;;4.86;81.46;98780.59;5103987;28;20044;-94
2022/01/07 03:49:56;;;;;;;6.13;2.30;;;;;;;4.71;82.01;98766.59;5098822;28;20063;-94
2022/01/07 03:52:23;;;;;;;7.50;2.20;;;;;;;4.58;81.75;98750.84;5104491;28;20067;-93
2022/01/07 03:54:51;;;;;;;5.30;2.13;;;;;;;4.70;81.99;98772.72;5117318;28;20047;-93
2022/01/07 03:57:18;;;;;;;6.65;2.15;;;;;;;4.58;81.35;98753.47;5118987;28;20043;-93
2022/01/07 03:59:44;;;;;;;4.85;1.85;;;;;;;4.62;80.88;98752.56;5118390;28;20039;-94
2022/01/07 04:05:32;;;;;;;3.15;2.00;;;;;;;4.83;79.53;98767.41;5098298;28;20421;-93
2022/01/07 04:08:00;;;;;;;6.80;1.90;;;;;;;4.74;79.14;98749.88;5098626;28;20051;-93
2022/01/07 04:10:28;;;;;;;2.80;1.80;;;;;;;4.87;78.62;98774.44;5106411;28;20055;-91
2022/01/07 04:12:55;;;;;;;3.83;1.60;;;;;;;4.81;78.62;98763.91;5105845;28;20048;-94
2022/01/07 04:19:32;;;;;;;5.25;2.00;;;;;;;4.92;79.46;98804.25;5111994;28;20478;-92
2022/01/07 04:21:58;;;;;;;4.65;1.63;;;;;;;4.82;79.47;98797.28;5098223;28;20032;-92
2022/01/07 04:24:24;;;;;;;4.70;1.98;;;;;;;4.68;79.43;98782.41;5109243;28;20040;-92
2022/01/07 04:26:52;;;;;;;3.47;1.70;;;;;;;4.71;78.69;98768.34;5107059;28;20040;-92
2022/01/07 04:29:18;;;;;;;5.72;1.88;;;;;;;4.67;79.77;98788.56;5116607;28;20074;-93
2022/01/07 04:31:43;;;;;;;4.28;1.98;;;;;;;4.57;80.92;98805.25;5116105;28;20096;-92
2022/01/07 04:34:09;;;;;;;8.77;2.13;;;;;;;4.45;81.40;98793.00;5117458;28;20386;-94
2022/01/07 04:36:38;;;;;;;2.60;1.83;;;;;;;4.55;81.72;98816.66;5104950;28;20043;-93
2022/01/07 04:39:04;;;;;;;3.58;1.85;;;;;;;4.36;81.63;98789.50;5104791;28;20064;-94
2022/01/07 04:41:30;;;;;;;3.47;1.80;;;;;;;4.46;82.53;98828.97;5120124;28;20400;-93
2022/01/07 04:43:58;;;;;;;7.30;2.30;;;;;;;4.42;82.74;98832.47;5115839;28;20036;-91
2022/01/07 04:49:45;;;;;;;4.25;2.03;;;;;;;4.19;84.25;98822.00;5105537;28;20039;-95
2022/01/07 04:52:11;;;;;;;6.50;2.53;;;;;;;4.02;84.73;98808.84;5116591;28;20512;-93
2022/01/07 04:54:37;;;;;;;7.32;2.75;;;;;;;4.18;84.17;98830.75;5112000;28;20139;-95
2022/01/07 04:57:04;;;;;;;3.63;2.20;;;;;;;4.17;83.36;98805.34;5117706;28;20103;-93
2022/01/07 04:59:31;;;;;;;3.92;1.98;;;;;;;4.11;83.62;98800.94;5118744;28;20051;-94
2022/01/07 05:05:33;;;;;;;7.47;2.58;;;;;;;3.96;85.38;98811.47;5117992;28;20028;-93
2022/01/07 05:07:58;;;;;;;4.35;2.10;;;;;;;3.86;85.76;98812.34;5117709;28;20039;-93
2022/01/07 05:10:25;;;;;;;7.32;2.20;;;;;;;3.86;86.69;98829.03;5118288;28;20078;-94
2022/01/07 05:12:51;;;;;;;4.18;2.00;;;;;;;3.66;87.15;98817.59;5117439;28;20063;-93
2022/01/07 05:19:31;;;;;;;4.57;2.30;;;;;;;3.81;87.87;98843.91;5111611;28;20027;-92
2022/01/07 05:22:00;;;;;;;5.43;2.00;;;;;;;3.79;87.32;98827.22;5101897;28;20492;-93
2022/01/07 05:24:26;;;;;;;3.45;2.10;;;;;;;3.74;86.87;98831.63;5108920;28;20043;-93
2022/01/07 05:26:53;;;;;;;8.43;2.30;;;;;;;3.67;86.40;98798.31;5097187;28;20047;-95
2022/01/07 05:29:19;;;;;;;11.70;2.90;;;;;;;3.73;86.38;98818.47;5096391;28;20044;-95
2022/01/07 05:35:09;;;;;;;13.70;3.10;;;;;;;3.86;85.65;98831.66;5105256;28;20082;-94
2022/01/07 05:37:36;;;;;;;6.13;2.55;;;;;;;3.70;86.07;98811.47;5111419;28;20398;-94
2022/01/07 05:40:03;;;;;;;5.80;2.42;;;;;;;3.88;86.08;98848.31;5105786;28;20046;-93
2022/01/07 05:42:29;;;;;;;5.07;2.35;;;;;;;3.85;86.40;98853.56;5107597;28;20054;-93
2022/01/07 05:44:56;;;;;;;8.73;2.28;;;;;;;3.91;86.02;98865.84;5112270;28;20123;-94
2022/01/07 05:47:22;;;;;;;5.75;2.40;;;;;;;3.81;86.77;98859.69;5111277;28;20047;-92
2022/01/07 05:49:48;;;;;;;6.95;2.20;;;;;;;3.61;87.40;98843.88;5109752;28;20044;-94
2022/01/07 05:52:15;;;;;;;7.03;2.75;;;;;;;3.60;87.77;98844.75;5116384;28;20047;-94
2022/01/07 05:54:42;;;;;;;5.63;2.25;;;;;;;3.61;87.64;98858.78;5104736;28;20040;-91
2022/01/07 05:57:08;;;;;;;8.27;2.70;;;;;;;3.60;87.57;98857.91;5110048;28;20040;-91
2022/01/07 05:59:35;;;;;;;5.15;2.00;;;;;;;3.50;87.55;98838.59;5117927;28;20139;-93
2022/01/07 06:02:01;;;;;;;6.07;2.20;;;;;;;3.68;87.27;98860.53;5098009;28;20040;-92
2022/01/07 06:04:27;;;;;;;6.28;2.58;;;;;;;3.59;86.86;98831.59;5106889;28;20035;-92
2022/01/07 06:06:53;;;;;;;7.13;2.40;;;;;;;3.69;87.92;98872.84;5101713;28;20459;-93
2022/01/07 06:09:19;;;;;;;6.28;2.25;;;;;;;3.64;87.98;98864.03;5115588;28;20050;-94
2022/01/07 06:11:47;;;;;;;9.20;2.40;;;;;;;3.50;87.88;98851.75;5117348;28;20043;-95
2022/01/07 06:14:12;;;;;;;7.30;2.50;;;;;;;3.53;88.05;98842.09;5102497;28;20032;-95
2022/01/07 06:20:01;;;;;;;9.07;2.80;;;;;;;3.53;88.19;98857.88;5110424;28;20035;-91
2022/01/07 06:22:27;;;;;;;6.15;2.58;;;;;;;3.56;88.24;98860.53;5116164;28;20040;-94
2022/01/07 06:24:53;;;;;;;7.47;2.45;;;;;;;3.52;87.89;98843.00;5110245;28;20118;-91
2022/01/07 06:27:21;;;;;;;9.00;2.58;;;;;;;3.53;87.45;98845.59;5118350;28;20035;-94
2022/01/07 06:29:47;;;;;;;5.57;2.00;;;;;;;3.62;87.66;98857.88;5105798;28;20127;-93
2022/01/07 06:35:37;;;;;;;4.22;2.35;;;;;;;3.69;87.97;98885.97;5111750;28;20027;-92
2022/01/07 06:38:05;;;;;;;9.23;2.42;;;;;;;3.59;87.67;98868.41;5120057;28;20508;-94
2022/01/07 06:40:31;;;;;;;6.93;2.60;;;;;;;3.60;87.25;98860.53;5112501;28;20036;-92
2022/01/07 06:42:59;;;;;;;5.00;2.10;;;;;;;3.73;87.36;98876.31;5120634;28;20503;-92
2022/01/07 07:06:44;;;;;;;6.07;2.13;;;;;;;4.01;85.85;98880.78;5119053;28;20043;-96
2022/01/07 07:09:11;;;;;;;6.88;2.80;;;;;;;4.07;85.47;98891.28;5108742;28;20046;-93
2022/01/07 07:11:37;;;;;;;7.60;4.22;;;;;;;4.16;84.75;98877.25;5100457;28;20040;-96
2022/01/07 07:14:03;;;;;;;10.38;3.53;;;;;;;4.13;84.40;98864.09;5117259;28;20039;-95
2022/01/07 07:19:52;;;;;;;5.03;2.40;;;;;;;4.31;83.04;98850.06;5102610;28;20032;-95
2022/01/07 07:22:19;;;;;;;5.88;2.17;;;;;;;4.51;82.44;98869.38;5107962;28;20051;-94
2022/01/07 07:24:45;;;;;;;10.52;3.85;;;;;;;4.64;81.61;98870.22;5118450;28;20044;-96
2022/01/07 07:27:11;;;;;;;5.47;2.58;;;;;;;4.70;81.89;98885.13;5119673;28;20044;-95
2022/01/07 07:29:37;;;;;;;11.05;3.60;;;;;;;4.70;81.78;98878.09;5103830;28;20059;-93
2022/01/07 07:38:27;;;;;;;7.88;2.88;;;;;;;4.76;81.27;98857.91;5134142;27;20372;-92
2022/01/07 07:40:52;;;;;;;5.65;2.70;;;;;;;4.89;81.44;98870.16;5134322;27;20422;-93
2022/01/07 07:43:18;;;;;;;7.60;4.10;;;;;;;4.90;80.30;98861.34;5127135;27;20043;-91
2022/01/07 07:49:36;;;;;;;8.50;4.00;;;;;;;5.31;80.01;98886.69;5122059;28;20055;-95
2022/01/07 07:52:03;;;;;;;6.35;2.90;;;;;;;5.21;79.39;98862.16;5124692;28;20043;-92
2022/01/07 07:54:31;;;;;;;6.15;2.53;;;;;;;5.30;78.94;98875.28;5136632;27;20126;-93
2022/01/07 07:56:59;;;;;;;5.30;3.05;;;;;;;5.27;78.95;98859.50;5127265;27;20490;-94
2022/01/07 07:59:25;;;;;;;5.40;3.08;;;;;;;5.47;78.63;98874.34;5139213;28;20047;-95
2022/01/07 08:05:14;;;;;;;5.82;2.90;;;;;;;5.43;77.40;98843.59;5134472;28;20027;-95
2022/01/07 08:07:40;;;;;;;6.03;2.95;;;;;;;5.57;77.67;98857.56;5139584;27;20039;-94
2022/01/07 08:10:09;;;;;;;4.97;2.30;;;;;;;5.66;77.53;98864.53;5120318;28;20091;-94
2022/01/07 08:19:31;;;;;;;5.38;2.88;;;;;;;5.85;76.56;98852.13;5136756;28;20035;-93
2022/01/07 08:21:58;;;;;;;6.90;3.13;;;;;;;6.03;76.14;98869.63;5135754;28;20051;-91
2022/01/07 08:24:24;;;;;;;3.70;2.03;;;;;;;5.98;76.30;98867.00;5135195;28;20150;-94
2022/01/07 08:26:50;;;;;;;8.18;2.72;;;;;;;6.16;75.47;98876.59;5136213;28;20074;-94
2022/01/07 08:29:20;;;;;;;6.63;2.80;;;;;;;6.13;74.49;98847.56;5137117;28;20122;-93
2022/01/07 08:38:31;;;;;;;6.53;3.10;;;;;;;6.31;74.80;98865.91;5122681;28;20088;-94
2022/01/07 08:40:57;;;;;;;7.50;2.90;;;;;;;6.42;73.44;98851.69;5135040;28;20036;-93
2022/01/07 08:43:23;;;;;;;5.93;3.08;;;;;;;6.52;73.24;98853.38;5135851;28;20116;-94
2022/01/07 09:06:00;;;;;;;14.05;5.53;;;;;;;6.96;70.72;98858.22;5133357;28;20481;-93
2022/01/07 09:08:26;;;;;;;10.07;4.28;;;;;;;7.11;70.24;98864.22;5133189;28;20061;-93
2022/01/07 09:10:52;;;;;;;9.75;2.63;;;;;;;7.17;69.57;98856.22;5132958;28;20031;-93
2022/01/07 09:13:21;;;;;;;16.17;7.00;;;;;;;7.32;69.86;98882.47;5133503;28;20075;-93
2022/01/07 09:22:33;;;;;;;9.02;4.00;;;;;;;7.56;68.13;98888.34;5116836;28;20028;-94
2022/01/07 09:25:01;;;;;;;5.45;2.40;;;;;;;7.52;67.34;98871.63;5131081;28;20044;-94
2022/01/07 09:27:27;;;;;;;10.93;4.82;;;;;;;7.24;68.53;98872.88;5119239;28;20067;-93
2022/01/07 09:29:54;;;;;;;7.57;2.85;;;;;;;7.54;67.85;98874.25;5121778;28;20063;-93
2022/01/07 09:35:41;;;;;;;4.53;2.40;;;;;;;7.67;67.51;98880.28;5121674;28;20050;-94
2022/01/07 09:38:09;;;;;;;12.40;3.20;;;;;;;7.69;66.84;98882.00;5120806;28;20036;-94
2022/01/07 09:40:35;;;;;;;6.40;2.85;;;;;;;7.54;65.90;98858.38;5121677;28;20069;-95
2022/01/07 09:43:02;;;;;;;4.72;2.90;;;;;;;7.65;66.16;98845.00;5120494;28;20493;-94
2022/01/07 09:53:10;;;;;;;3.97;1.80;;;;;;;8.07;66.42;98880.59;5117336;28;20775;-92
2022/01/07 09:55:58;;;;;;;4.07;2.20;;;;;;;7.97;66.33;98857.78;5089485;28;20112;-94
2022/01/07 09:58:24;;;;;;;5.43;2.10;;;;;;;7.93;66.53;98837.53;5118575;28;20044;-93
2022/01/07 10:11:14;;;;;;;6.05;2.78;;;;;;;8.23;66.02;98849.41;5102259;28;20024;-93
2022/01/07 10:13:42;;;;;;;10.07;3.17;;;;;;;8.38;64.84;98841.22;5118046;28;20055;-95
2022/01/07 10:26:53;;;;;;;5.45;2.03;;;;;;;8.93;61.04;98843.78;5118816;28;20032;-93
2022/01/07 10:29:31;;;;;;;3.05;2.10;;;;;;;8.66;58.14;98824.84;5114133;28;20092;-94
2022/01/07 10:35:23;;;;;;;4.47;2.08;;;;;;;8.60;58.97;98806.41;5116398;28;20031;-91
2022/01/07 10:37:54;;;;;;;3.90;1.90;;;;;;;8.72;57.18;98806.19;5116547;28;20036;-93
2022/01/07 10:40:23;;;;;;;3.20;1.60;;;;;;;8.73;55.64;98807.06;5117351;28;20044;-93
2022/01/07 10:42:50;;;;;;;5.60;2.10;;;;;;;8.61;56.81;98814.34;5119030;28;20055;-94
2022/01/07 11:12:11;;;;;;;4.57;2.00;;;;;;;8.49;56.31;98772.16;5118225;28;20091;-95
2022/01/07 11:14:37;;;;;;;6.30;2.72;;;;;;;8.52;56.80;98777.41;5117640;28;20044;-93
2022/01/07 11:20:25;;;;;;;4.63;1.70;;;;;;;8.36;56.44;98747.63;5117641;28;20461;-95
2022/01/07 11:22:54;;;;;;;4.82;1.90;;;;;;;8.56;56.27;98754.34;5117806;28;20040;-95
2022/01/07 11:25:31;;;;;;;3.33;2.13;;;;;;;8.62;55.82;98764.84;5117755;28;20531;-94
2022/01/07 11:28:01;;;;;;;4.95;2.08;;;;;;;8.69;55.48;98763.81;5118158;28;20103;-94
2022/01/07 11:30:31;;;;;;;5.78;3.30;;;;;;;8.63;56.04;98770.13;5117373;28;20036;-94
2022/01/07 11:33:03;;;;;;;5.20;2.15;;;;;;;8.52;56.03;98737.66;5118701;28;20044;-94
2022/01/07 11:35:41;;;;;;;7.90;2.30;;;;;;;8.51;55.69;98753.59;5117567;28;20043;-94
2022/01/07 11:38:33;;;;;;;6.20;2.53;;;;;;;8.68;55.64;98755.91;5117841;28;20036;-94
2022/01/07 11:41:00;;;;;;;4.80;2.33;;;;;;;8.71;55.64;98745.25;5097534;28;20047;-94
2022/01/07 11:43:33;;;;;;;4.85;2.40;;;;;;;8.70;55.03;98738.19;5116370;28;20520;-94
2022/01/07 11:49:42;;;;;;;6.65;2.22;;;;;;;8.70;56.89;98746.16;5121548;28;20027;-95
2022/01/07 11:52:34;;;;;;;4.30;2.30;;;;;;;8.72;58.89;98742.56;5119657;28;20060;-94
2022/01/07 11:55:22;;;;;;;4.40;2.33;;;;;;;8.54;58.45;98711.97;5120318;28;20114;-93
2022/01/07 11:57:50;;;;;;;8.10;2.40;;;;;;;8.64;57.76;98710.03;5110283;28;20051;-95
2022/01/07 12:03:45;;;;;;;6.80;3.40;;;;;;;8.60;58.35;98718.94;5111010;28;20492;-94
2022/01/07 12:06:48;;;;;;;5.97;2.40;;;;;;;8.51;57.83;98740.34;5119607;28;20051;-94
2022/01/07 12:09:20;;;;;;;6.85;2.28;;;;;;;8.44;59.04;98697.19;5120396;28;20055;-95
2022/01/07 12:11:59;;;;;;;4.97;2.05;;;;;;;8.50;60.83;98693.50;5118295;28;20065;-94
2022/01/07 12:14:28;;;;;;;5.45;2.38;;;;;;;8.56;59.38;98690.75;5120538;28;20047;-95
2022/01/07 12:20:48;;;;;;;6.45;2.15;;;;;;;8.65;59.42;98717.06;5120608;28;20043;-94
2022/01/07 12:23:22;;;;;;;4.90;2.00;;;;;;;8.72;56.99;98723.09;5098439;28;20072;-92
2022/01/07 12:25:52;;;;;;;23.33;6.68;;;;;;;8.52;58.55;98691.72;5109345;28;20059;-95
2022/01/07 12:28:20;;;;;;;4.28;2.00;;;;;;;8.41;57.89;98683.97;5120774;28;20059;-95
2022/01/07 12:34:34;;;;;;;6.32;3.50;;;;;;;8.52;60.20;98711.16;5116035;28;20024;-94
2022/01/07 12:37:11;;;;;;;8.00;3.63;;;;;;;8.27;60.25;98686.88;5122142;28;20040;-96
2022/01/07 12:39:41;;;;;;;5.00;2.40;;;;;;;8.17;61.18;98674.69;5109702;28;20497;-94
2022/01/07 12:42:10;;;;;;;10.70;3.00;;;;;;;8.25;61.95;98672.78;5118897;28;20075;-95
2022/01/07 12:44:37;;;;;;;4.20;2.50;;;;;;;8.54;60.73;98689.91;5119007;28;20063;-96
2022/01/07 12:57:49;;;;;;;3.08;2.00;;;;;;;8.34;60.61;98698.22;5119365;28;20028;-94
2022/01/07 13:03:43;;;;;;;8.45;3.40;;;;;;;8.07;61.62;98659.88;5113050;28;20039;-94
2022/01/07 13:06:09;;;;;;;7.45;2.83;;;;;;;8.22;61.85;98683.44;5121654;28;20048;-93
2022/01/07 13:08:36;;;;;;;6.60;2.58;;;;;;;8.23;62.80;98672.78;5120112;28;20036;-92
2022/01/07 13:11:02;;;;;;;5.72;2.63;;;;;;;8.05;62.18;98654.63;5120292;28;20131;-94
2022/01/07 13:13:28;;;;;;;6.13;2.45;;;;;;;7.92;62.29;98661.91;5120710;28;20522;-93
2022/01/07 13:19:45;;;;;;;7.93;2.67;;;;;;;7.63;63.39;98650.97;5120599;28;20028;-94
2022/01/07 13:22:12;;;;;;;8.68;4.18;;;;;;;7.69;64.35;98672.03;5125091;27;20148;-93
2022/01/07 13:24:39;;;;;;;5.22;2.30;;;;;;;7.81;62.95;98672.69;5118141;28;20039;-92
2022/01/07 13:27:06;;;;;;;7.55;3.15;;;;;;;7.88;63.55;98670.81;5109513;28;20048;-94
2022/01/07 13:29:35;;;;;;;6.90;2.65;;;;;;;7.78;64.23;98664.78;5110974;28;20039;-93
2022/01/07 13:42:46;;;;;;;5.65;3.47;;;;;;;7.74;63.64;98700.19;5122155;28;20042;-96
2022/01/07 13:52:08;;;;;;;5.05;2.63;;;;;;;7.61;62.69;98698.59;5107084;28;20024;-93
2022/01/07 13:54:35;;;;;;;8.77;2.92;;;;;;;7.28;63.03;98689.44;5121719;28;20097;-93
2022/01/07 13:57:04;;;;;;;5.20;2.72;;;;;;;7.02;63.18;98672.19;5122051;28;20048;-94
2022/01/07 13:59:41;;;;;;;6.45;2.85;;;;;;;7.03;63.21;98705.69;5121144;28;20082;-92
2022/01/07 14:05:29;;;;;;;6.63;3.63;;;;;;;6.89;63.43;98705.84;5122805;28;20153;-94
2022/01/07 14:07:56;;;;;;;3.67;2.53;;;;;;;6.89;63.68;98697.91;5124892;28;20089;-93
2022/01/07 14:10:25;;;;;;;6.75;2.85;;;;;;;6.96;63.17;98701.34;5121791;28;20047;-92
2022/01/07 14:12:56;;;;;;;7.85;2.97;;;;;;;6.85;63.76;98688.28;5120226;28;20574;-95
2022/01/07 14:25:34;;;;;;;4.90;2.78;;;;;;;6.85;64.02;98680.34;5120694;28;20038;-94
2022/01/07 14:28:00;;;;;;;5.47;2.92;;;;;;;6.96;63.79;98690.75;5119547;28;20044;-94
2022/01/07 14:40:57;;;;;;;4.35;2.70;;;;;;;6.91;62.91;98697.91;5112214;28;20373;-92
2022/01/07 14:43:23;;;;;;;6.47;3.00;;;;;;;6.78;63.26;98681.31;5118630;28;20075;-93
2022/01/07 14:53:28;;;;;;;7.20;2.85;;;;;;;6.69;63.72;98692.03;5120454;28;20088;-93
2022/01/07 14:55:54;;;;;;;8.30;3.20;;;;;;;6.53;64.58;98686.94;5119449;28;20024;-95
2022/01/07 14:58:24;;;;;;;4.45;2.72;;;;;;;6.55;63.87;98679.00;5120845;28;20048;-93
2022/01/07 15:04:33;;;;;;;6.97;3.60;;;;;;;6.46;64.78;98700.22;5099972;28;20032;-95
2022/01/07 15:06:59;;;;;;;7.43;3.10;;;;;;;6.35;64.61;98693.31;5114045;28;20043;-94
2022/01/07 15:09:26;;;;;;;3.78;2.72;;;;;;;6.20;65.95;98679.38;5119631;28;20080;-95
2022/01/07 15:11:54;;;;;;;5.97;3.20;;;;;;;6.16;65.68;98670.66;5118103;28;20066;-93
2022/01/07 15:14:22;;;;;;;13.13;3.28;;;;;;;6.11;65.75;98669.81;5119226;28;20046;-94
2022/01/07 15:20:12;;;;;;;11.05;3.60;;;;;;;6.14;66.19;98688.25;5119653;28;20036;-93
2022/01/07 15:22:38;;;;;;;7.75;3.90;;;;;;;6.17;66.49;98693.50;5118019;28;20044;-93
2022/01/07 15:25:06;;;;;;;4.78;2.83;;;;;;;6.09;66.31;98683.00;5118309;28;20036;-94
2022/01/07 15:27:35;;;;;;;5.88;3.15;;;;;;;5.93;66.86;98663.78;5121477;28;20085;-95
2022/01/07 15:34:02;;;;;;;8.73;3.80;;;;;;;5.95;67.48;98703.41;5121506;28;20260;-93
2022/01/07 15:36:33;;;;;;;8.68;4.68;;;;;;;5.74;68.31;98688.59;5121402;28;20027;-95
2022/01/07 15:39:00;;;;;;;9.50;4.38;;;;;;;5.76;68.61;98694.75;5123005;28;20082;-92
2022/01/07 15:41:27;;;;;;;6.38;4.32;;;;;;;5.54;69.30;98675.59;5124278;28;20070;-95
2022/01/07 15:43:54;;;;;;;20.83;8.40;;;;;;;5.56;69.29;98679.09;5124694;28;20039;-95
2022/01/07 15:49:41;;;;;;;14.50;6.18;;;;;;;5.64;69.83;98715.94;5123841;28;20034;-94
2022/01/07 15:52:09;;;;;;;15.93;7.22;;;;;;;5.62;70.05;98728.31;5123797;28;20047;-92
2022/01/07 15:54:35;;;;;;;12.52;5.47;;;;;;;5.38;69.48;98695.94;5121959;28;20151;-96
2022/01/07 15:57:04;;;;;;;10.07;4.47;;;;;;;5.37;69.42;98683.63;5123693;28;20126;-94
2022/01/07 15:59:31;;;;;;;9.82;4.20;;;;;;;5.33;68.94;98697.72;5124716;28;20047;-94
2022/01/07 16:05:19;;;;;;;7.70;4.07;;;;;;;5.25;68.10;98692.53;5102823;28;20436;-94
2022/01/07 16:07:46;;;;;;;8.38;4.30;;;;;;;5.23;67.68;98680.25;5105382;28;20466;-95
2022/01/07 16:10:12;;;;;;;9.05;4.07;;;;;;;5.22;67.64;98689.03;5125827;28;20081;-93
2022/01/07 16:12:41;;;;;;;6.75;4.15;;;;;;;5.12;67.34;98683.81;5126025;28;20097;-96
2022/01/07 16:18:43;;;;;;;8.90;4.85;;;;;;;5.13;66.59;98701.38;5105441;28;20127;-95
2022/01/07 16:21:09;;;;;;;11.77;4.40;;;;;;;4.95;66.61;98677.78;5104221;28;20044;-96
2022/01/07 16:23:37;;;;;;;6.45;3.88;;;;;;;5.00;66.58;98691.78;5125052;28;20044;-96
2022/01/07 16:26:05;;;;;;;8.05;4.72;;;;;;;5.02;66.26;98692.66;5123085;27;20075;-96
2022/01/07 16:28:32;;;;;;;13.93;5.00;;;;;;;5.14;66.38;98724.22;5122087;28;20048;-94
2022/01/07 16:34:22;;;;;;;10.95;6.20;;;;;;;5.06;65.31;98720.75;5123775;28;20051;-95
2022/01/07 16:36:47;;;;;;;7.75;4.85;;;;;;;4.96;65.66;98699.72;5126712;27;20042;-96
2022/01/07 16:39:16;;;;;;;7.78;4.82;;;;;;;4.94;65.35;98695.34;5126650;28;20103;-95
2022/01/07 16:41:42;;;;;;;13.07;5.05;;;;;;;4.98;65.42;98709.38;5126975;28;20071;-95
2022/01/07 16:44:10;;;;;;;8.85;5.35;;;;;;;4.99;65.46;98708.50;5126603;28;20036;-95
2022/01/07 16:49:58;;;;;;;6.32;3.90;;;;;;;4.73;65.78;98684.94;5127592;28;20024;-93
2022/01/07 16:52:28;;;;;;;9.52;3.25;;;;;;;4.71;65.44;98674.41;5126321;28;20096;-92
2022/01/07 16:58:00;;;;;;;11.80;4.72;;;;;;;4.67;66.31;98680.56;5156970;27;20379;-95
2022/01/07 17:04:34;;;;;;;15.20;5.65;;;;;;;4.81;66.73;98721.75;5121700;28;20048;-95
2022/01/07 17:07:02;;;;;;;15.60;6.32;;;;;;;4.59;67.18;98684.97;5122137;28;20055;-93
2022/01/07 17:09:28;;;;;;;15.00;6.10;;;;;;;4.59;67.97;98690.25;5119696;28;20040;-94
2022/01/07 17:11:55;;;;;;;12.65;4.50;;;;;;;4.60;67.09;98685.84;5121111;28;20040;-94
2022/01/07 17:14:22;;;;;;;18.55;7.28;;;;;;;4.56;67.45;98679.75;5126237;28;20497;-94
2022/01/07 17:20:11;;;;;;;17.45;6.90;;;;;;;4.63;67.69;98696.38;5117475;28;20132;-95
2022/01/07 17:22:38;;;;;;;8.13;4.90;;;;;;;4.50;68.32;98679.75;5117627;28;20052;-95
2022/01/07 17:25:05;;;;;;;9.20;4.82;;;;;;;4.46;68.67;98672.75;5117161;28;20047;-95
2022/01/07 17:27:31;;;;;;;9.13;4.78;;;;;;;4.45;68.77;98673.66;5117605;28;20064;-93
2022/01/07 17:36:08;;;;;;;11.05;4.78;;;;;;;4.39;70.00;98671.03;5051794;28;20033;-94
2022/01/07 17:38:34;;;;;;;8.15;5.28;;;;;;;4.34;70.70;98668.41;5052435;28;20041;-95
2022/01/07 17:41:01;;;;;;;9.70;4.75;;;;;;;4.31;70.65;98671.91;5052453;28;20107;-94